sensor_id;sensor_type;location;lat;lon;timestamp;pressure;altitude;pressure_sealevel;temperature;humidity
46506;BME280;32220;49.808;9.968;2023-05-07T00:02:10;98892.41;;;16.28;61.34
46506;BME280;32220;49.808;9.968;2023-05-07T00:04:38;98888.31;;;16.24;61.09
46506;BME280;32220;49.808;9.968;2023-05-07T00:07:05;98882.22;;;16.22;61.15
46506;BME280;32220;49.808;9.968;2023-05-07T00:09:33;98890.47;;;16.30;61.61
46506;BME280;32220;49.808;9.968;2023-05-07T00:12:01;98885.13;;;16.30;61.71
46506;BME280;32220;49.808;9.968;2023-05-07T00:14:28;98885.13;;;16.30;61.48
46506;BME280;32220;49.808;9.968;2023-05-07T00:16:56;98892.28;;;16.29;61.66
46506;BME280;32220;49.808;9.968;2023-05-07T00:19:25;98880.88;;;16.27;62.35
46506;BME280;32220;49.808;9.968;2023-05-07T00:21:52;98874.09;;;16.23;62.08
46506;BME280;32220;49.808;9.968;2023-05-07T00:24:20;98884.91;;;16.22;61.68
46506;BME280;32220;49.808;9.968;2023-05-07T00:26:48;98868.94;;;16.10;61.50
46506;BME280;32220;49.808;9.968;2023-05-07T00:29:15;98875.97;;;16.11;61.58
46506;BME280;32220;49.808;9.968;2023-05-07T00:31:43;98881.06;;;16.14;61.73
46506;BME280;32220;49.808;9.968;2023-05-07T00:34:10;98875.97;;;16.11;61.70
46506;BME280;32220;49.808;9.968;2023-05-07T00:36:39;98872.88;;;16.06;61.73
46506;BME280;32220;49.808;9.968;2023-05-07T00:39:07;98888.75;;;16.08;61.72
46506;BME280;32220;49.808;9.968;2023-05-07T00:41:35;98895.09;;;16.07;61.37
46506;BME280;32220;49.808;9.968;2023-05-07T00:44:02;98887.34;;;16.04;61.80
46506;BME280;32220;49.808;9.968;2023-05-07T00:46:30;98886.72;;;16.00;61.71
46506;BME280;32220;49.808;9.968;2023-05-07T00:48:59;98886.97;;;15.97;61.26
46506;BME280;32220;49.808;9.968;2023-05-07T00:51:27;98883.88;;;15.92;61.30
46506;BME280;32220;49.808;9.968;2023-05-07T00:53:57;98890.44;;;15.88;61.09
46506;BME280;32220;49.808;9.968;2023-05-07T00:56:25;98883.63;;;15.84;61.49
46506;BME280;32220;49.808;9.968;2023-05-07T00:58:53;98880.53;;;15.79;61.35
46506;BME280;32220;49.808;9.968;2023-05-07T01:01:20;98873.75;;;15.75;61.56
46506;BME280;32220;49.808;9.968;2023-05-07T01:03:48;98851.94;;;15.59;61.43
46506;BME280;32220;49.808;9.968;2023-05-07T01:06:16;98857.56;;;15.56;61.83
46506;BME280;32220;49.808;9.968;2023-05-07T01:08:45;98868.69;;;15.61;61.99
46506;BME280;32220;49.808;9.968;2023-05-07T01:11:15;98865.78;;;15.53;61.91
46506;BME280;32220;49.808;9.968;2023-05-07T01:13:43;98869.44;;;15.52;62.36
46506;BME280;32220;49.808;9.968;2023-05-07T01:16:12;98871.50;;;15.48;62.33
46506;BME280;32220;49.808;9.968;2023-05-07T01:18:39;98879.91;;;15.43;62.37
46506;BME280;32220;49.808;9.968;2023-05-07T01:21:10;98864.25;;;15.39;62.49
46506;BME280;32220;49.808;9.968;2023-05-07T01:23:40;98856.88;;;15.31;62.71
46506;BME280;32220;49.808;9.968;2023-05-07T01:26:31;98865.75;;;15.32;62.99
46506;BME280;32220;49.808;9.968;2023-05-07T01:28:59;98865.13;;;15.28;63.10
46506;BME280;32220;49.808;9.968;2023-05-07T01:31:28;98853.00;;;15.24;63.80
46506;BME280;32220;49.808;9.968;2023-05-07T01:33:57;98848.91;;;15.20;64.21
46506;BME280;32220;49.808;9.968;2023-05-07T01:36:27;98833.06;;;15.07;64.60
46506;BME280;32220;49.808;9.968;2023-05-07T01:38:58;98843.34;;;15.12;65.00
46506;BME280;32220;49.808;9.968;2023-05-07T01:41:26;98847.25;;;15.08;65.05
46506;BME280;32220;49.808;9.968;2023-05-07T01:43:56;98849.19;;;15.06;65.10
46506;BME280;32220;49.808;9.968;2023-05-07T01:46:26;98839.13;;;14.98;65.54
46506;BME280;32220;49.808;9.968;2023-05-07T01:48:53;98842.63;;;14.99;65.16
46506;BME280;32220;49.808;9.968;2023-05-07T01:51:21;98845.69;;;14.94;64.94
46506;BME280;32220;49.808;9.968;2023-05-07T01:53:49;98852.09;;;14.92;64.30
46506;BME280;32220;49.808;9.968;2023-05-07T01:56:20;98851.63;;;14.87;64.15
46506;BME280;32220;49.808;9.968;2023-05-07T01:58:49;98849.19;;;14.84;64.42
46506;BME280;32220;49.808;9.968;2023-05-07T02:01:18;98847.03;;;14.78;64.44
46506;BME280;32220;49.808;9.968;2023-05-07T02:03:45;98854.06;;;14.67;64.42
46506;BME280;32220;49.808;9.968;2023-05-07T02:06:20;98847.78;;;14.68;65.15
46506;BME280;32220;49.808;9.968;2023-05-07T02:08:48;98852.59;;;14.63;66.19
46506;BME280;32220;49.808;9.968;2023-05-07T02:11:16;98848.47;;;14.59;66.12
46506;BME280;32220;49.808;9.968;2023-05-07T02:13:45;98839.50;;;14.49;66.97
46506;BME280;32220;49.808;9.968;2023-05-07T02:16:12;98849.72;;;14.55;67.42
46506;BME280;32220;49.808;9.968;2023-05-07T02:18:41;98831.06;;;14.44;67.50
46506;BME280;32220;49.808;9.968;2023-05-07T02:21:08;98849.94;;;14.52;69.16
46506;BME280;32220;49.808;9.968;2023-05-07T02:23:36;98849.94;;;14.52;69.51
46506;BME280;32220;49.808;9.968;2023-05-07T02:26:04;98852.38;;;14.55;69.54
46506;BME280;32220;49.808;9.968;2023-05-07T02:28:32;98852.13;;;14.58;69.51
46506;BME280;32220;49.808;9.968;2023-05-07T02:31:04;98855.28;;;14.63;69.19
46506;BME280;32220;49.808;9.968;2023-05-07T02:33:32;98850.44;;;14.68;69.97
46506;BME280;32220;49.808;9.968;2023-05-07T02:36:06;98834.19;;;14.60;70.16
46506;BME280;32220;49.808;9.968;2023-05-07T02:38:35;98858.66;;;14.77;69.80
46506;BME280;32220;49.808;9.968;2023-05-07T02:41:03;98852.25;;;14.79;69.94
46506;BME280;32220;49.808;9.968;2023-05-07T02:43:31;98845.81;;;14.82;70.01
46506;BME280;32220;49.808;9.968;2023-05-07T02:46:04;98843.03;;;14.83;69.93
46506;BME280;32220;49.808;9.968;2023-05-07T02:48:34;98854.41;;;14.85;69.85
46506;BME280;32220;49.808;9.968;2023-05-07T02:51:02;98848.09;;;14.86;70.05
46506;BME280;32220;49.808;9.968;2023-05-07T02:53:32;98854.28;;;14.87;70.01
46506;BME280;32220;49.808;9.968;2023-05-07T02:56:01;98829.47;;;14.75;69.43
46506;BME280;32220;49.808;9.968;2023-05-07T02:58:29;98854.03;;;14.90;69.42
46506;BME280;32220;49.808;9.968;2023-05-07T03:00:57;98848.94;;;14.87;69.21
46506;BME280;32220;49.808;9.968;2023-05-07T03:03:37;98864.47;;;14.93;68.62
46506;BME280;32220;49.808;9.968;2023-05-07T03:06:05;98849.19;;;14.84;69.09
46506;BME280;32220;49.808;9.968;2023-05-07T03:08:33;98850.66;;;14.88;68.54
46506;BME280;32220;49.808;9.968;2023-05-07T03:11:01;98872.25;;;14.96;68.31
46506;BME280;32220;49.808;9.968;2023-05-07T03:13:29;98874.06;;;14.95;68.33
46506;BME280;32220;49.808;9.968;2023-05-07T03:15:56;98866.19;;;14.94;68.59
46506;BME280;32220;49.808;9.968;2023-05-07T03:18:24;98866.19;;;14.94;68.40
46506;BME280;32220;49.808;9.968;2023-05-07T03:20:53;98868.72;;;14.95;68.42
46506;BME280;32220;49.808;9.968;2023-05-07T03:23:20;98864.25;;;14.96;68.59
46506;BME280;32220;49.808;9.968;2023-05-07T03:25:48;98873.06;;;14.96;68.46
46506;BME280;32220;49.808;9.968;2023-05-07T03:28:15;98872.09;;;14.97;68.63
46506;BME280;32220;49.808;9.968;2023-05-07T03:30:49;98866.91;;;14.96;68.77
46506;BME280;32220;49.808;9.968;2023-05-07T03:33:17;98869.56;;;14.96;69.31
46506;BME280;32220;49.808;9.968;2023-05-07T03:35:45;98871.25;;;14.97;69.73
46506;BME280;32220;49.808;9.968;2023-05-07T03:38:19;98871.25;;;14.97;69.47
46506;BME280;32220;49.808;9.968;2023-05-07T03:40:47;98869.56;;;14.96;69.80
46506;BME280;32220;49.808;9.968;2023-05-07T03:43:15;98879.97;;;14.99;69.75
46506;BME280;32220;49.808;9.968;2023-05-07T03:45:48;98883.38;;;15.01;70.16
46506;BME280;32220;49.808;9.968;2023-05-07T03:48:21;98881.44;;;15.03;69.98
46506;BME280;32220;49.808;9.968;2023-05-07T03:50:50;98880.34;;;15.05;70.37
46506;BME280;32220;49.808;9.968;2023-05-07T03:53:22;98877.66;;;15.05;70.56
46506;BME280;32220;49.808;9.968;2023-05-07T03:55:50;98879.50;;;15.05;70.33
46506;BME280;32220;49.808;9.968;2023-05-07T03:58:18;98885.56;;;15.07;70.52
46506;BME280;32220;49.808;9.968;2023-05-07T04:00:46;98876.59;;;15.08;70.71
46506;BME280;32220;49.808;9.968;2023-05-07T04:03:25;98881.44;;;15.03;70.96
46506;BME280;32220;49.808;9.968;2023-05-07T04:05:53;98889.91;;;15.08;70.81
46506;BME280;32220;49.808;9.968;2023-05-07T04:08:23;98884.59;;;15.08;71.33
46506;BME280;32220;49.808;9.968;2023-05-07T04:10:57;98881.78;;;15.09;71.48
46506;BME280;32220;49.808;9.968;2023-05-07T04:13:27;98885.28;;;15.10;71.98
46506;BME280;32220;49.808;9.968;2023-05-07T04:15:57;98885.78;;;15.15;71.81
46506;BME280;32220;49.808;9.968;2023-05-07T04:18:26;98891.44;;;15.22;71.15
46506;BME280;32220;49.808;9.968;2023-05-07T04:20:54;98893.03;;;15.24;71.04
46506;BME280;32220;49.808;9.968;2023-05-07T04:23:23;98885.63;;;15.28;70.92
46506;BME280;32220;49.808;9.968;2023-05-07T04:25:51;98876.28;;;15.22;70.87
46506;BME280;32220;49.808;9.968;2023-05-07T04:28:36;98885.38;;;15.31;70.96
46506;BME280;32220;49.808;9.968;2023-05-07T04:31:03;98887.66;;;15.35;71.40
46506;BME280;32220;49.808;9.968;2023-05-07T04:33:34;98871.94;;;15.32;71.24
46506;BME280;32220;49.808;9.968;2023-05-07T04:36:03;98884.88;;;15.37;71.38
46506;BME280;32220;49.808;9.968;2023-05-07T04:38:36;98884.03;;;15.36;71.49
46506;BME280;32220;49.808;9.968;2023-05-07T04:41:06;98885.00;;;15.35;71.40
46506;BME280;32220;49.808;9.968;2023-05-07T04:43:38;98886.69;;;15.36;71.38
46506;BME280;32220;49.808;9.968;2023-05-07T04:46:06;98880.38;;;15.37;71.30
46506;BME280;32220;49.808;9.968;2023-05-07T04:48:33;98878.69;;;15.36;71.77
46506;BME280;32220;49.808;9.968;2023-05-07T04:51:04;98885.25;;;15.43;71.20
46506;BME280;32220;49.808;9.968;2023-05-07T04:53:33;98895.16;;;15.53;70.94
46506;BME280;32220;49.808;9.968;2023-05-07T04:56:02;98895.88;;;15.66;70.63
46506;BME280;32220;49.808;9.968;2023-05-07T04:58:36;98882.13;;;15.70;70.39
46506;BME280;32220;49.808;9.968;2023-05-07T05:01:05;98898.69;;;15.85;69.65
46506;BME280;32220;49.808;9.968;2023-05-07T05:03:32;98909.31;;;15.96;69.46
46506;BME280;32220;49.808;9.968;2023-05-07T05:06:00;98912.22;;;16.04;69.15
46506;BME280;32220;49.808;9.968;2023-05-07T05:08:32;98913.38;;;16.11;69.05
46506;BME280;32220;49.808;9.968;2023-05-07T05:11:02;98916.84;;;16.23;68.85
46506;BME280;32220;49.808;9.968;2023-05-07T05:13:32;98919.13;;;16.28;68.55
46506;BME280;32220;49.808;9.968;2023-05-07T05:16:04;98928.06;;;16.38;68.56
46506;BME280;32220;49.808;9.968;2023-05-07T05:18:32;98917.63;;;16.35;67.90
46506;BME280;32220;49.808;9.968;2023-05-07T05:21:00;98929.69;;;16.50;68.06
46506;BME280;32220;49.808;9.968;2023-05-07T05:23:28;98936.47;;;16.54;68.18
46506;BME280;32220;49.808;9.968;2023-05-07T05:25:56;98938.50;;;16.62;67.80
46506;BME280;32220;49.808;9.968;2023-05-07T05:28:28;98928.16;;;16.68;67.54
46506;BME280;32220;49.808;9.968;2023-05-07T05:30:56;98936.63;;;16.73;67.31
46506;BME280;32220;49.808;9.968;2023-05-07T05:33:26;98942.00;;;16.83;67.41
46506;BME280;32220;49.808;9.968;2023-05-07T05:36:00;98942.63;;;16.96;67.44
46506;BME280;32220;49.808;9.968;2023-05-07T05:38:28;98937.34;;;17.06;66.83
46506;BME280;32220;49.808;9.968;2023-05-07T05:40:57;98943.03;;;17.22;66.72
46506;BME280;32220;49.808;9.968;2023-05-07T05:43:24;98940.25;;;17.33;66.13
46506;BME280;32220;49.808;9.968;2023-05-07T05:45:55;98937.44;;;17.44;65.71
46506;BME280;32220;49.808;9.968;2023-05-07T05:48:23;98930.16;;;17.56;65.32
46506;BME280;32220;49.808;9.968;2023-05-07T05:50:51;98944.81;;;17.62;64.81
46506;BME280;32220;49.808;9.968;2023-05-07T05:53:18;98936.69;;;17.73;64.79
46506;BME280;32220;49.808;9.968;2023-05-07T05:55:46;98945.44;;;17.75;63.32
46506;BME280;32220;49.808;9.968;2023-05-07T05:58:14;98946.69;;;17.71;63.05
46506;BME280;32220;49.808;9.968;2023-05-07T06:00:48;98942.91;;;17.64;63.37
46506;BME280;32220;49.808;9.968;2023-05-07T06:03:20;98952.06;;;17.71;63.45
46506;BME280;32220;49.808;9.968;2023-05-07T06:05:47;98958.44;;;17.79;62.89
46506;BME280;32220;49.808;9.968;2023-05-07T06:08:16;98959.28;;;17.80;62.82
46506;BME280;32220;49.808;9.968;2023-05-07T06:10:44;98943.03;;;17.72;62.36
46506;BME280;32220;49.808;9.968;2023-05-07T06:13:12;98973.81;;;17.87;62.23
46506;BME280;32220;49.808;9.968;2023-05-07T06:15:41;98966.88;;;17.84;62.18
46506;BME280;32220;49.808;9.968;2023-05-07T06:18:11;98972.81;;;17.98;62.46
46506;BME280;32220;49.808;9.968;2023-05-07T06:20:42;98970.59;;;18.12;62.23
46506;BME280;32220;49.808;9.968;2023-05-07T06:23:17;98974.69;;;18.26;61.89
46506;BME280;32220;49.808;9.968;2023-05-07T06:25:48;98963.53;;;18.40;61.47
46506;BME280;32220;49.808;9.968;2023-05-07T06:28:16;98969.88;;;18.58;60.92
46506;BME280;32220;49.808;9.968;2023-05-07T06:30:43;98970.84;;;18.77;61.00
46506;BME280;32220;49.808;9.968;2023-05-07T06:33:12;98992.41;;;18.94;60.08
46506;BME280;32220;49.808;9.968;2023-05-07T06:35:39;98996.91;;;19.04;59.78
46506;BME280;32220;49.808;9.968;2023-05-07T06:38:08;98991.66;;;19.12;59.58
46506;BME280;32220;49.808;9.968;2023-05-07T06:40:37;98990.47;;;19.24;59.29
46506;BME280;32220;49.808;9.968;2023-05-07T06:43:04;98992.06;;;19.44;59.00
46506;BME280;32220;49.808;9.968;2023-05-07T06:45:55;98994.50;;;19.75;57.87
46506;BME280;32220;49.808;9.968;2023-05-07T06:48:22;98985.78;;;20.08;57.55
46506;BME280;32220;49.808;9.968;2023-05-07T06:50:57;99002.09;;;20.60;56.42
46506;BME280;32220;49.808;9.968;2023-05-07T06:53:27;99028.41;;;20.92;54.76
46506;BME280;32220;49.808;9.968;2023-05-07T06:55:58;99021.25;;;21.00;53.88
46506;BME280;32220;49.808;9.968;2023-05-07T06:58:25;99002.22;;;21.02;53.46
46506;BME280;32220;49.808;9.968;2023-05-07T07:00:53;99013.88;;;21.28;53.52
46506;BME280;32220;49.808;9.968;2023-05-07T07:03:21;99027.41;;;21.36;52.28
46506;BME280;32220;49.808;9.968;2023-05-07T07:05:51;99039.34;;;21.34;51.79
46506;BME280;32220;49.808;9.968;2023-05-07T07:08:19;99032.22;;;21.25;51.81
46506;BME280;32220;49.808;9.968;2023-05-07T07:10:48;99023.59;;;21.21;51.48
46506;BME280;32220;49.808;9.968;2023-05-07T07:13:16;99030.53;;;21.24;51.88
46506;BME280;32220;49.808;9.968;2023-05-07T07:15:44;99024.56;;;21.38;52.46
46506;BME280;32220;49.808;9.968;2023-05-07T07:18:11;99034.59;;;21.62;52.00
46506;BME280;32220;49.808;9.968;2023-05-07T07:20:39;99031.72;;;21.97;51.86
46506;BME280;32220;49.808;9.968;2023-05-07T07:23:08;99040.41;;;22.25;50.36
46506;BME280;32220;49.808;9.968;2023-05-07T07:25:36;99049.19;;;22.51;49.46
46506;BME280;32220;49.808;9.968;2023-05-07T07:28:05;99045.19;;;22.88;49.63
46506;BME280;32220;49.808;9.968;2023-05-07T07:30:33;99037.38;;;23.34;49.54
46506;BME280;32220;49.808;9.968;2023-05-07T07:33:02;99030.56;;;23.62;48.00
46506;BME280;32220;49.808;9.968;2023-05-07T07:35:33;99038.00;;;23.99;48.01
46506;BME280;32220;49.808;9.968;2023-05-07T07:38:01;99020.19;;;24.13;47.09
46506;BME280;32220;49.808;9.968;2023-05-07T07:40:29;99050.03;;;24.58;46.32
46506;BME280;32220;49.808;9.968;2023-05-07T07:42:57;99059.72;;;24.76;45.46
46506;BME280;32220;49.808;9.968;2023-05-07T07:45:29;99060.31;;;24.86;44.31
46506;BME280;32220;49.808;9.968;2023-05-07T07:47:57;99056.28;;;25.04;44.08
46506;BME280;32220;49.808;9.968;2023-05-07T07:50:25;99065.31;;;25.20;43.24
46506;BME280;32220;49.808;9.968;2023-05-07T07:52:53;99070.91;;;25.18;43.11
46506;BME280;32220;49.808;9.968;2023-05-07T07:55:22;99070.03;;;25.03;43.52
46506;BME280;32220;49.808;9.968;2023-05-07T07:57:52;99051.91;;;24.81;44.11
46506;BME280;32220;49.808;9.968;2023-05-07T08:00:22;99038.97;;;24.45;44.32
46506;BME280;32220;49.808;9.968;2023-05-07T08:02:55;99039.38;;;24.34;45.57
46506;BME280;32220;49.808;9.968;2023-05-07T08:05:27;99018.31;;;24.13;45.17
46506;BME280;32220;49.808;9.968;2023-05-07T08:07:55;99056.19;;;24.13;44.40
46506;BME280;32220;49.808;9.968;2023-05-07T08:10:27;99038.94;;;23.83;44.86
46506;BME280;32220;49.808;9.968;2023-05-07T08:13:01;99034.56;;;23.74;45.20
46506;BME280;32220;49.808;9.968;2023-05-07T08:15:30;99031.50;;;23.85;46.50
46506;BME280;32220;49.808;9.968;2023-05-07T08:17:59;99009.28;;;23.98;46.40
46506;BME280;32220;49.808;9.968;2023-05-07T08:20:28;98996.28;;;23.93;45.09
46506;BME280;32220;49.808;9.968;2023-05-07T08:22:56;99048.09;;;24.44;44.99
46506;BME280;32220;49.808;9.968;2023-05-07T08:25:25;99057.97;;;24.83;45.16
46506;BME280;32220;49.808;9.968;2023-05-07T08:27:53;99065.94;;;25.07;44.44
46506;BME280;32220;49.808;9.968;2023-05-07T08:30:21;99068.78;;;25.28;43.56
46506;BME280;32220;49.808;9.968;2023-05-07T08:32:50;99082.53;;;25.41;42.64
46506;BME280;32220;49.808;9.968;2023-05-07T08:35:20;99072.72;;;25.40;42.42
46506;BME280;32220;49.808;9.968;2023-05-07T08:37:47;99070.09;;;25.32;42.30
46506;BME280;32220;49.808;9.968;2023-05-07T08:40:17;99076.25;;;25.26;42.11
46506;BME280;32220;49.808;9.968;2023-05-07T08:42:48;99063.84;;;25.47;43.03
46506;BME280;32220;49.808;9.968;2023-05-07T08:45:17;99068.38;;;25.69;42.64
46506;BME280;32220;49.808;9.968;2023-05-07T08:47:47;99073.03;;;25.90;41.41
46506;BME280;32220;49.808;9.968;2023-05-07T08:50:23;99071.22;;;26.11;41.32
46506;BME280;32220;49.808;9.968;2023-05-07T08:52:51;99077.94;;;26.45;41.61
46506;BME280;32220;49.808;9.968;2023-05-07T08:55:20;99073.97;;;26.47;40.59
46506;BME280;32220;49.808;9.968;2023-05-07T08:57:48;99068.72;;;26.46;40.66
46506;BME280;32220;49.808;9.968;2023-05-07T09:00:17;99074.63;;;26.71;41.91
46506;BME280;32220;49.808;9.968;2023-05-07T09:02:48;99087.94;;;27.02;39.41
46506;BME280;32220;49.808;9.968;2023-05-07T09:05:16;99084.31;;;27.44;40.20
46506;BME280;32220;49.808;9.968;2023-05-07T09:07:46;99088.09;;;28.05;38.33
46506;BME280;32220;49.808;9.968;2023-05-07T09:10:15;99087.81;;;28.35;39.21
46506;BME280;32220;49.808;9.968;2023-05-07T09:12:46;99086.75;;;28.36;37.54
46506;BME280;32220;49.808;9.968;2023-05-07T09:15:15;99109.78;;;27.92;37.76
46506;BME280;32220;49.808;9.968;2023-05-07T09:17:43;99091.88;;;27.48;38.47
46506;BME280;32220;49.808;9.968;2023-05-07T09:20:12;99080.94;;;27.14;40.13
46506;BME280;32220;49.808;9.968;2023-05-07T09:22:40;99089.38;;;26.98;39.51
46506;BME280;32220;49.808;9.968;2023-05-07T09:25:13;99087.94;;;26.80;40.25
46506;BME280;32220;49.808;9.968;2023-05-07T09:27:43;99082.50;;;26.80;41.81
46506;BME280;32220;49.808;9.968;2023-05-07T09:30:11;99090.38;;;26.75;39.27
46506;BME280;32220;49.808;9.968;2023-05-07T09:32:40;99080.44;;;26.82;40.78
46506;BME280;32220;49.808;9.968;2023-05-07T09:35:17;99090.09;;;27.34;39.42
46506;BME280;32220;49.808;9.968;2023-05-07T09:37:49;99085.81;;;28.15;39.07
46506;BME280;32220;49.808;9.968;2023-05-07T09:40:22;99099.31;;;29.24;36.68
46506;BME280;32220;49.808;9.968;2023-05-07T09:42:51;99101.72;;;30.24;35.24
46506;BME280;32220;49.808;9.968;2023-05-07T09:45:22;99082.91;;;31.42;35.12
46506;BME280;32220;49.808;9.968;2023-05-07T09:47:55;99117.41;;;32.96;30.55
46506;BME280;32220;49.808;9.968;2023-05-07T09:50:27;99110.41;;;33.76;29.86
46506;BME280;32220;49.808;9.968;2023-05-07T09:52:56;99096.06;;;33.74;29.25
46506;BME280;32220;49.808;9.968;2023-05-07T09:55:26;99106.22;;;34.61;30.38
46506;BME280;32220;49.808;9.968;2023-05-07T09:57:55;99126.16;;;34.68;28.53
46506;BME280;32220;49.808;9.968;2023-05-07T10:00:23;99114.88;;;34.41;29.50
46506;BME280;32220;49.808;9.968;2023-05-07T10:03:00;99112.03;;;34.76;29.74
46506;BME280;32220;49.808;9.968;2023-05-07T10:05:37;99124.50;;;34.95;28.09
46506;BME280;32220;49.808;9.968;2023-05-07T10:08:06;99116.81;;;35.25;28.05
46506;BME280;32220;49.808;9.968;2023-05-07T10:10:38;99110.31;;;35.32;28.84
46506;BME280;32220;49.808;9.968;2023-05-07T10:13:10;99126.63;;;35.21;28.04
46506;BME280;32220;49.808;9.968;2023-05-07T10:15:40;99111.44;;;35.19;29.37
46506;BME280;32220;49.808;9.968;2023-05-07T10:18:08;99118.16;;;35.40;29.17
46506;BME280;32220;49.808;9.968;2023-05-07T10:20:38;99109.00;;;35.34;29.49
46506;BME280;32220;49.808;9.968;2023-05-07T10:23:13;99094.59;;;35.82;29.21
46506;BME280;32220;49.808;9.968;2023-05-07T10:25:46;99070.41;;;36.28;28.77
46506;BME280;32220;49.808;9.968;2023-05-07T10:28:22;99112.00;;;37.51;26.61
46506;BME280;32220;49.808;9.968;2023-05-07T10:31:01;99121.59;;;37.70;24.82
46506;BME280;32220;49.808;9.968;2023-05-07T10:33:39;99109.38;;;37.66;24.51
46506;BME280;32220;49.808;9.968;2023-05-07T10:36:07;99104.03;;;37.96;25.02
46506;BME280;32220;49.808;9.968;2023-05-07T10:38:36;99096.31;;;37.24;26.22
46506;BME280;32220;49.808;9.968;2023-05-07T10:41:07;99080.81;;;36.91;27.58
46506;BME280;32220;49.808;9.968;2023-05-07T10:43:44;99075.69;;;37.05;26.51
46506;BME280;32220;49.808;9.968;2023-05-07T10:46:33;99082.38;;;37.09;26.71
46506;BME280;32220;49.808;9.968;2023-05-07T10:49:16;99091.91;;;36.26;26.38
46506;BME280;32220;49.808;9.968;2023-05-07T10:52:14;99078.19;;;34.92;27.15
46506;BME280;32220;49.808;9.968;2023-05-07T10:55:20;99074.53;;;34.06;27.85
46506;BME280;32220;49.808;9.968;2023-05-07T10:58:22;99069.69;;;33.50;29.03
46506;BME280;32220;49.808;9.968;2023-05-07T11:00:58;99074.19;;;34.03;29.08
46506;BME280;32220;49.808;9.968;2023-05-07T11:03:31;99066.78;;;33.92;29.07
46506;BME280;32220;49.808;9.968;2023-05-07T11:06:12;99079.09;;;33.89;28.12
46506;BME280;32220;49.808;9.968;2023-05-07T11:09:02;99061.47;;;34.37;29.50
46506;BME280;32220;49.808;9.968;2023-05-07T11:11:50;99061.63;;;34.75;28.97
46506;BME280;32220;49.808;9.968;2023-05-07T11:14:53;99054.63;;;34.96;28.87
46506;BME280;32220;49.808;9.968;2023-05-07T11:17:31;99065.03;;;34.66;27.86
46506;BME280;32220;49.808;9.968;2023-05-07T11:20:05;99066.94;;;34.65;28.39
46506;BME280;32220;49.808;9.968;2023-05-07T11:22:55;99070.28;;;34.67;27.55
46506;BME280;32220;49.808;9.968;2023-05-07T11:25:44;99062.19;;;34.89;28.67
46506;BME280;32220;49.808;9.968;2023-05-07T11:28:17;99071.91;;;34.51;28.40
46506;BME280;32220;49.808;9.968;2023-05-07T11:30:56;99056.94;;;34.19;28.90
46506;BME280;32220;49.808;9.968;2023-05-07T11:33:25;99061.03;;;34.05;29.51
46506;BME280;32220;49.808;9.968;2023-05-07T11:35:53;99055.53;;;34.05;28.10
46506;BME280;32220;49.808;9.968;2023-05-07T11:38:24;99047.94;;;33.83;28.77
46506;BME280;32220;49.808;9.968;2023-05-07T11:40:53;99063.53;;;34.06;28.66
46506;BME280;32220;49.808;9.968;2023-05-07T11:43:21;99056.22;;;34.52;29.75
46506;BME280;32220;49.808;9.968;2023-05-07T11:45:49;99046.66;;;35.00;29.51
46506;BME280;32220;49.808;9.968;2023-05-07T11:48:19;99028.88;;;35.36;29.89
46506;BME280;32220;49.808;9.968;2023-05-07T11:50:51;99034.66;;;36.16;28.41
46506;BME280;32220;49.808;9.968;2023-05-07T11:53:19;99046.56;;;36.65;26.47
46506;BME280;32220;49.808;9.968;2023-05-07T11:55:47;99055.84;;;38.39;25.79
46506;BME280;32220;49.808;9.968;2023-05-07T11:58:21;99056.31;;;39.24;24.88
46506;BME280;32220;49.808;9.968;2023-05-07T12:00:49;99050.66;;;40.00;24.08
46506;BME280;32220;49.808;9.968;2023-05-07T12:03:19;99056.53;;;41.36;21.50
46506;BME280;32220;49.808;9.968;2023-05-07T12:05:47;99066.94;;;41.25;21.19
46506;BME280;32220;49.808;9.968;2023-05-07T12:08:15;99056.06;;;41.29;21.28
46506;BME280;32220;49.808;9.968;2023-05-07T12:10:43;99064.53;;;41.43;21.33
46506;BME280;32220;49.808;9.968;2023-05-07T12:13:14;99063.03;;;41.55;20.67
46506;BME280;32220;49.808;9.968;2023-05-07T12:15:42;99059.34;;;41.65;21.20
46506;BME280;32220;49.808;9.968;2023-05-07T12:18:10;99077.06;;;42.46;19.94
46506;BME280;32220;49.808;9.968;2023-05-07T12:20:40;99072.97;;;42.99;19.35
46506;BME280;32220;49.808;9.968;2023-05-07T12:23:08;99064.13;;;43.30;19.86
46506;BME280;32220;49.808;9.968;2023-05-07T12:25:36;99054.19;;;43.05;20.17
46506;BME280;32220;49.808;9.968;2023-05-07T12:28:04;99059.06;;;43.32;19.71
46506;BME280;32220;49.808;9.968;2023-05-07T12:30:36;99051.13;;;43.72;20.02
46506;BME280;32220;49.808;9.968;2023-05-07T12:33:04;99067.47;;;44.19;17.71
46506;BME280;32220;49.808;9.968;2023-05-07T12:35:32;99042.63;;;44.31;18.22
46506;BME280;32220;49.808;9.968;2023-05-07T12:38:08;99027.88;;;44.67;18.68
46506;BME280;32220;49.808;9.968;2023-05-07T12:40:38;99044.72;;;44.39;17.75
46506;BME280;32220;49.808;9.968;2023-05-07T12:43:06;99030.13;;;44.15;18.28
46506;BME280;32220;49.808;9.968;2023-05-07T12:45:37;99038.63;;;43.96;17.68
46506;BME280;32220;49.808;9.968;2023-05-07T12:48:05;99035.44;;;43.11;18.24
46506;BME280;32220;49.808;9.968;2023-05-07T12:50:33;99027.63;;;42.75;19.60
46506;BME280;32220;49.808;9.968;2023-05-07T12:53:04;99039.50;;;43.18;18.52
46506;BME280;32220;49.808;9.968;2023-05-07T12:55:41;99032.56;;;43.48;18.96
46506;BME280;32220;49.808;9.968;2023-05-07T12:58:14;99023.97;;;43.12;19.64
46506;BME280;32220;49.808;9.968;2023-05-07T13:00:43;99024.47;;;43.00;19.53
46506;BME280;32220;49.808;9.968;2023-05-07T13:03:11;99024.13;;;43.21;19.68
46506;BME280;32220;49.808;9.968;2023-05-07T13:05:39;99015.09;;;43.56;18.98
46506;BME280;32220;49.808;9.968;2023-05-07T13:08:08;99032.28;;;43.77;17.29
46506;BME280;32220;49.808;9.968;2023-05-07T13:10:35;99026.53;;;43.74;17.93
46506;BME280;32220;49.808;9.968;2023-05-07T13:13:03;99000.38;;;43.83;18.45
46506;BME280;32220;49.808;9.968;2023-05-07T13:15:31;99021.97;;;43.64;18.08
46506;BME280;32220;49.808;9.968;2023-05-07T13:17:59;99013.63;;;42.00;19.19